Time;durP1;ratioP1;P1;durP2;ratioP2;P2;SDS_P1;SDS_P2;PMS_P1;PMS_P2;Temp;Humidity;BMP_temperature;BMP_pressure;BME280_temperature;BME280_humidity;BME280_pressure;Samples;Min_cycle;Max_cycle;Signal;HPM_P1;HPM_P2
2024/01/20 00:02:12;;;;;;;0.30;0.30;;;;;;;0.45;100.00;100729.38;5052312;28;20090;-73
2024/01/20 00:04:38;;;;;;;0.30;0.30;;;;;;;-0.16;100.00;100631.97;5051861;28;20048;-73
2024/01/20 00:07:04;;;;;;;0.47;0.47;;;;;;;0.14;100.00;100659.97;5052322;28;20492;-73
2024/01/20 00:09:29;;;;;;;0.35;0.35;;;;;;;0.02;100.00;100644.81;5047319;28;20044;-73
2024/01/20 00:11:55;;;;;;;0.57;0.57;;;;;;;0.66;100.00;100757.88;5071308;28;20032;-73
2024/01/20 00:14:20;;;;;;;0.38;0.38;;;;;;;0.07;100.00;100676.91;5058792;28;20492;-72
2024/01/20 00:16:46;;;;;;;0.50;0.50;;;;;;;0.56;100.00;100743.66;5064433;28;20048;-74
2024/01/20 00:19:12;;;;;;;0.40;0.40;;;;;;;0.50;100.00;100739.94;5060318;28;20102;-73
2024/01/20 00:21:39;;;;;;;0.63;0.63;;;;;;;0.61;100.00;100774.88;5058710;28;20071;-72
2024/01/20 00:24:05;;;;;;;3.45;3.25;;;;;;;0.50;100.00;100747.66;5055379;28;20024;-72
2024/01/20 00:26:30;;;;;;;0.85;0.85;;;;;;;0.62;100.00;100779.19;5054844;28;20055;-72
2024/01/20 00:28:56;;;;;;;0.30;0.30;;;;;;;0.08;100.00;100755.16;5051230;28;20425;-74
2024/01/20 00:31:21;;;;;;;0.35;0.35;;;;;;;0.26;100.00;100768.03;5051716;28;20047;-73
2024/01/20 00:33:47;;;;;;;7.00;6.53;;;;;;;-0.56;100.00;100688.47;5048635;28;20497;-72
2024/01/20 00:36:13;;;;;;;0.68;0.68;;;;;;;0.24;100.00;100806.69;5047632;28;20033;-73
2024/01/20 00:38:39;;;;;;;0.68;0.68;;;;;;;-0.29;100.00;100779.16;5050253;28;20021;-72
2024/01/20 00:41:08;;;;;;;2.25;2.15;;;;;;;-0.17;100.00;100735.03;5052362;28;20041;-72
2024/01/20 00:43:33;;;;;;;0.40;0.40;;;;;;;-0.36;100.00;100679.13;5047641;28;20044;-73
2024/01/20 00:45:59;;;;;;;0.50;0.50;;;;;;;-0.02;100.00;100734.09;5061196;28;20045;-72
2024/01/20 00:48:24;;;;;;;0.30;0.30;;;;;;;-0.48;100.00;100716.38;5058285;28;20452;-73
2024/01/20 00:50:53;;;;;;;0.60;0.60;;;;;;;-0.31;100.00;100784.25;5058430;28;20050;-72
2024/01/20 00:53:18;;;;;;;0.40;0.40;;;;;;;-0.45;100.00;100737.16;5063702;28;20040;-72
2024/01/20 00:55:44;;;;;;;0.40;0.40;;;;;;;-0.85;100.00;100687.91;5058793;28;20039;-72
2024/01/20 00:58:10;;;;;;;0.50;0.50;;;;;;;-0.89;100.00;100694.63;5046537;28;20128;-72
2024/01/20 01:00:36;;;;;;;0.30;0.30;;;;;;;-0.14;100.00;100779.94;5054911;28;20048;-72
2024/01/20 01:03:02;;;;;;;0.43;0.43;;;;;;;-0.72;100.00;100728.94;5049721;28;20033;-72
2024/01/20 01:05:28;;;;;;;1.60;1.50;;;;;;;-0.33;100.00;100744.63;5047315;28;20040;-72
2024/01/20 01:07:53;;;;;;;0.30;0.30;;;;;;;-0.57;100.00;100691.88;5069302;28;20190;-72
2024/01/20 01:10:19;;;;;;;0.50;0.50;;;;;;;-0.28;100.00;100766.38;5046746;28;20137;-72
2024/01/20 01:12:44;;;;;;;0.30;0.30;;;;;;;-0.52;100.00;100722.19;5054712;28;20086;-74
2024/01/20 01:15:10;;;;;;;0.40;0.40;;;;;;;-0.18;100.00;100775.44;5050658;28;20063;-72
2024/01/20 01:17:36;;;;;;;0.30;0.30;;;;;;;0.09;100.00;100835.19;5046854;28;20040;-72
2024/01/20 01:20:03;;;;;;;0.40;0.40;;;;;;;-0.05;100.00;100821.66;5056881;28;20048;-73
2024/01/20 01:22:28;;;;;;;1.10;1.10;;;;;;;0.12;100.00;100844.81;5060537;28;20522;-73
2024/01/20 01:24:54;;;;;;;0.85;0.85;;;;;;;-0.21;100.00;100806.22;5060628;28;20041;-73
2024/01/20 01:27:19;;;;;;;0.38;0.38;;;;;;;-0.01;100.00;100841.59;5058279;28;20076;-73
2024/01/20 01:29:45;;;;;;;0.40;0.40;;;;;;;0.27;100.00;100888.53;5059229;28;20057;-73
2024/01/20 01:32:10;;;;;;;0.40;0.40;;;;;;;-0.15;100.00;100819.41;5056972;28;20075;-73
2024/01/20 01:34:36;;;;;;;1.05;0.82;;;;;;;-0.54;100.00;100783.13;5055155;28;20059;-73
2024/01/20 01:37:02;;;;;;;0.40;0.40;;;;;;;0.22;100.00;100903.78;5057668;28;20128;-73
2024/01/20 01:39:27;;;;;;;0.50;0.50;;;;;;;0.05;100.00;100876.25;5051990;28;20159;-72
2024/01/20 01:41:53;;;;;;;0.30;0.30;;;;;;;-0.17;100.00;100894.94;5056354;28;20528;-73
2024/01/20 01:44:18;;;;;;;0.30;0.30;;;;;;;-0.01;100.00;100900.94;5055032;28;20401;-73
2024/01/20 01:46:44;;;;;;;0.40;0.40;;;;;;;-1.06;100.00;100709.19;5058762;28;20060;-72
2024/01/20 01:49:09;;;;;;;0.70;0.70;;;;;;;-0.55;100.00;100910.19;5054858;28;20041;-72
2024/01/20 01:51:36;;;;;;;0.30;0.30;;;;;;;-0.95;100.00;100835.94;5060353;28;20484;-73
2024/01/20 01:54:03;;;;;;;0.40;0.40;;;;;;;-0.85;100.00;100796.97;5059915;28;20032;-71
2024/01/20 01:56:30;;;;;;;0.50;0.50;;;;;;;-0.29;100.00;100910.66;5055391;28;20056;-73
2024/01/20 01:58:56;;;;;;;0.35;0.35;;;;;;;0.02;100.00;100944.06;5058506;28;20035;-73
2024/01/20 02:01:22;;;;;;;0.65;0.63;;;;;;;-0.73;100.00;100858.56;5049250;28;20052;-72
2024/01/20 02:03:48;;;;;;;0.45;0.45;;;;;;;-0.62;100.00;100846.25;5053367;28;20496;-72
2024/01/20 02:06:13;;;;;;;0.30;0.30;;;;;;;-0.12;100.00;100945.94;5049702;28;20509;-73
2024/01/20 02:08:40;;;;;;;0.30;0.30;;;;;;;-0.34;100.00;100964.56;5059531;28;20039;-73
2024/01/20 02:11:07;;;;;;;0.30;0.30;;;;;;;-0.27;100.00;100950.31;5048161;28;20061;-73
2024/01/20 02:13:33;;;;;;;6.65;6.32;;;;;;;-0.14;100.00;100968.19;5054116;28;20049;-73
2024/01/20 02:16:01;;;;;;;0.60;0.60;;;;;;;-0.56;100.00;100869.78;5052390;28;20390;-73
2024/01/20 02:18:27;;;;;;;0.43;0.43;;;;;;;-0.75;100.00;100865.34;5045470;28;20412;-71
2024/01/20 02:20:53;;;;;;;0.30;0.30;;;;;;;-0.76;100.00;100863.56;5065672;28;20526;-73
2024/01/20 02:23:19;;;;;;;0.45;0.45;;;;;;;-0.32;100.00;100965.53;5055134;28;20148;-73
2024/01/20 02:25:46;;;;;;;0.40;0.40;;;;;;;-0.68;100.00;100874.25;5049061;28;20089;-73
2024/01/20 02:28:12;;;;;;;0.30;0.30;;;;;;;0.03;100.00;100992.28;5051710;28;20050;-73
2024/01/20 02:30:37;;;;;;;0.90;0.90;;;;;;;-0.09;100.00;100979.63;5052111;28;20041;-73
2024/01/20 02:33:03;;;;;;;0.40;0.40;;;;;;;-0.85;100.00;100852.78;5056185;28;20037;-72
2024/01/20 02:35:29;;;;;;;0.43;0.43;;;;;;;-0.16;100.00;100968.94;5075379;28;20040;-73
2024/01/20 02:37:55;;;;;;;0.40;0.40;;;;;;;-0.04;100.00;100985.91;5053931;28;20033;-74
2024/01/20 02:40:20;;;;;;;0.40;0.40;;;;;;;-0.28;100.00;100940.78;5050336;28;20048;-73
2024/01/20 02:42:46;;;;;;;0.43;0.43;;;;;;;-0.12;100.00;101031.03;5055998;28;20073;-74
2024/01/20 02:45:11;;;;;;;0.30;0.30;;;;;;;-0.48;100.00;100932.91;5056202;28;20119;-73
2024/01/20 02:47:37;;;;;;;0.40;0.40;;;;;;;-0.46;100.00;100994.84;5057075;28;20020;-73
2024/01/20 02:50:03;;;;;;;0.47;0.47;;;;;;;-0.81;100.00;100911.38;5056477;28;20091;-73
2024/01/20 02:52:28;;;;;;;0.45;0.45;;;;;;;0.10;100.00;101052.84;5056551;28;20048;-72
2024/01/20 02:54:54;;;;;;;0.85;0.85;;;;;;;-0.14;100.00;101058.47;5053784;28;20053;-72
2024/01/20 02:57:19;;;;;;;0.57;0.50;;;;;;;-0.47;100.00;101071.31;5062267;28;20055;-73
2024/01/20 02:59:45;;;;;;;0.40;0.40;;;;;;;-0.75;100.00;101013.88;5051656;28;20021;-73
2024/01/20 03:02:10;;;;;;;0.30;0.30;;;;;;;-1.11;100.00;100932.09;5051337;28;20053;-73
2024/01/20 03:04:37;;;;;;;0.40;0.40;;;;;;;-0.10;100.00;101073.28;5051313;28;20072;-71
2024/01/20 03:07:03;;;;;;;1.27;0.93;;;;;;;-0.63;100.00;101068.69;5050283;28;20140;-72
2024/01/20 03:09:28;;;;;;;0.40;0.40;;;;;;;-0.60;100.00;101062.81;5049181;28;20119;-73
2024/01/20 03:11:54;;;;;;;0.40;0.40;;;;;;;-1.13;100.00;100961.13;5060281;28;20067;-73
2024/01/20 03:14:19;;;;;;;0.30;0.30;;;;;;;-0.82;100.00;100980.84;5066534;28;20126;-72
2024/01/20 03:16:45;;;;;;;0.30;0.30;;;;;;;-0.81;100.00;101022.16;5054975;28;20508;-72
2024/01/20 03:19:10;;;;;;;0.40;0.40;;;;;;;-0.55;100.00;101089.72;5060307;28;20041;-73
2024/01/20 03:21:36;;;;;;;0.55;0.55;;;;;;;-0.48;100.00;101102.16;5057742;28;20041;-72
2024/01/20 03:24:02;;;;;;;0.30;0.30;;;;;;;-0.51;100.00;101089.09;5067939;28;20538;-73
2024/01/20 03:26:27;;;;;;;0.40;0.40;;;;;;;-0.53;100.00;101111.31;5064096;28;20049;-73
2024/01/20 03:28:53;;;;;;;0.45;0.45;;;;;;;-0.52;100.00;101124.28;5065100;28;20036;-73
2024/01/20 03:31:19;;;;;;;0.30;0.30;;;;;;;-0.92;100.00;100994.91;5050890;28;20135;-73
2024/01/20 03:33:44;;;;;;;0.35;0.35;;;;;;;-0.44;100.00;101120.44;5062568;28;20043;-72
2024/01/20 03:36:11;;;;;;;0.60;0.60;;;;;;;-0.64;100.00;101126.16;5060094;28;20043;-72
2024/01/20 03:38:37;;;;;;;0.50;0.50;;;;;;;-0.43;100.00;101127.38;5077768;28;20036;-72
2024/01/20 03:41:03;;;;;;;0.40;0.40;;;;;;;-1.07;100.00;101025.84;5057319;28;20036;-73
2024/01/20 03:43:28;;;;;;;0.40;0.40;;;;;;;-0.23;100.00;101141.38;5059597;28;20053;-73
2024/01/20 03:45:55;;;;;;;0.40;0.40;;;;;;;-0.88;100.00;101054.41;5060880;28;20079;-72
2024/01/20 03:48:20;;;;;;;0.47;0.47;;;;;;;-1.09;100.00;101028.34;5065893;28;20400;-72
2024/01/20 03:50:46;;;;;;;0.30;0.30;;;;;;;-0.59;100.00;101118.69;5060492;28;20033;-72
2024/01/20 03:53:11;;;;;;;2.28;2.17;;;;;;;-0.47;100.00;101102.25;5077186;28;20049;-72
2024/01/20 03:55:37;;;;;;;0.30;0.30;;;;;;;-0.32;100.00;101150.28;5054038;28;20056;-72
2024/01/20 03:58:03;;;;;;;0.30;0.30;;;;;;;-0.74;100.00;101062.03;5073936;28;20139;-72
2024/01/20 04:00:28;;;;;;;0.35;0.35;;;;;;;-1.09;100.00;101027.47;5048416;28;20071;-72
2024/01/20 04:02:54;;;;;;;0.40;0.40;;;;;;;-0.85;100.00;101077.75;5053360;28;20113;-72
2024/01/20 04:05:19;;;;;;;0.30;0.30;;;;;;;-0.33;100.00;101153.66;5056581;28;20045;-72
2024/01/20 04:07:45;;;;;;;0.30;0.30;;;;;;;-1.37;100.00;101079.94;5050709;28;20152;-72
2024/01/20 04:10:11;;;;;;;0.30;0.30;;;;;;;-1.20;100.00;101126.38;5056433;28;20032;-73
2024/01/20 04:12:39;;;;;;;0.93;0.93;;;;;;;-0.99;100.00;101085.53;5052322;28;20061;-73
2024/01/20 04:15:05;;;;;;;0.38;0.38;;;;;;;-0.45;100.00;101165.06;5053949;28;20028;-73
2024/01/20 04:17:30;;;;;;;0.40;0.40;;;;;;;-0.50;100.00;101187.13;5050454;28;20076;-72
2024/01/20 04:19:56;;;;;;;0.40;0.40;;;;;;;-0.64;100.00;101191.47;5058687;28;20053;-73
2024/01/20 04:22:21;;;;;;;0.30;0.30;;;;;;;-1.14;100.00;101085.53;5062820;28;20044;-72
2024/01/20 04:24:47;;;;;;;2.75;2.65;;;;;;;-1.55;100.00;101072.00;5061496;28;20049;-74
2024/01/20 04:27:12;;;;;;;0.40;0.40;;;;;;;-0.85;100.00;101190.25;5059983;28;20051;-72
2024/01/20 04:29:38;;;;;;;0.40;0.40;;;;;;;-1.06;100.00;101174.41;5051503;28;20468;-73
2024/01/20 04:32:04;;;;;;;0.40;0.40;;;;;;;-0.67;100.00;101211.91;5061914;28;20047;-72
2024/01/20 04:34:29;;;;;;;0.43;0.43;;;;;;;-0.56;100.00;101235.75;5055562;28;20045;-72
2024/01/20 04:36:55;;;;;;;0.40;0.40;;;;;;;-1.18;100.00;101135.94;5058442;28;20421;-73
2024/01/20 04:39:20;;;;;;;0.38;0.38;;;;;;;-0.45;100.00;101264.72;5053809;28;20065;-72
2024/01/20 04:41:46;;;;;;;0.50;0.50;;;;;;;-0.98;100.00;101192.91;5058372;28;20063;-72
2024/01/20 04:44:11;;;;;;;0.57;0.57;;;;;;;-0.65;100.00;101261.00;5052674;28;20509;-73
2024/01/20 04:46:37;;;;;;;0.40;0.40;;;;;;;-1.34;100.00;101159.00;5062257;28;20060;-73
2024/01/20 04:49:02;;;;;;;0.30;0.30;;;;;;;-0.51;100.00;101288.47;5053324;28;20492;-73
2024/01/20 04:51:28;;;;;;;0.30;0.30;;;;;;;-0.35;100.00;101308.28;5050613;28;20055;-72
2024/01/20 04:53:53;;;;;;;0.40;0.40;;;;;;;-0.45;100.00;101304.25;5057124;28;20058;-73
2024/01/20 04:56:20;;;;;;;0.30;0.30;;;;;;;-1.06;100.00;101188.16;5058111;28;20040;-72
2024/01/20 04:58:46;;;;;;;0.55;0.55;;;;;;;-0.35;100.00;101317.69;5042153;28;20040;-73
2024/01/20 05:01:12;;;;;;;0.73;0.73;;;;;;;-1.03;100.00;101192.66;5053353;28;20052;-74
2024/01/20 05:03:37;;;;;;;0.30;0.30;;;;;;;-0.46;100.00;101309.34;5049136;28;20053;-73
2024/01/20 05:06:03;;;;;;;3.90;3.60;;;;;;;-0.66;100.00;101283.31;5046893;28;20078;-72
2024/01/20 05:08:28;;;;;;;0.40;0.40;;;;;;;-1.30;100.00;101235.63;5049400;28;20106;-72
2024/01/20 05:10:54;;;;;;;0.30;0.30;;;;;;;-0.80;100.00;101314.19;5050169;28;20049;-72
2024/01/20 05:13:19;;;;;;;0.40;0.40;;;;;;;-1.38;100.00;101205.94;5047326;28;20044;-72
2024/01/20 05:15:46;;;;;;;0.30;0.30;;;;;;;-0.55;100.00;101326.84;5056904;28;20454;-72
2024/01/20 05:18:12;;;;;;;0.30;0.30;;;;;;;-1.67;100.00;101125.31;5050096;28;20431;-73
2024/01/20 05:20:37;;;;;;;0.43;0.43;;;;;;;-0.39;100.00;101346.69;5060632;28;20103;-74
2024/01/20 05:23:03;;;;;;;0.35;0.35;;;;;;;-0.91;100.00;101252.59;5059670;28;20041;-71
2024/01/20 05:25:29;;;;;;;0.75;0.75;;;;;;;-1.11;100.00;101228.22;5055789;28;20049;-72
2024/01/20 05:27:55;;;;;;;0.30;0.30;;;;;;;-0.56;100.00;101313.06;5055539;28;20055;-72
2024/01/20 05:30:21;;;;;;;0.30;0.30;;;;;;;-0.95;100.00;101222.31;5044110;28;20071;-72
2024/01/20 05:32:47;;;;;;;0.45;0.45;;;;;;;-0.33;100.00;101347.94;5050918;28;20539;-73
2024/01/20 05:35:12;;;;;;;0.55;0.55;;;;;;;-0.60;100.00;101348.88;5058555;28;20141;-72
2024/01/20 05:37:38;;;;;;;0.47;0.47;;;;;;;-0.62;100.00;101335.00;5047765;28;20403;-72
2024/01/20 05:40:05;;;;;;;0.45;0.45;;;;;;;-0.78;100.00;101318.63;5052947;28;20048;-73
2024/01/20 05:42:30;;;;;;;0.32;0.32;;;;;;;-1.21;100.00;101225.91;5059416;28;20115;-73
2024/01/20 05:44:56;;;;;;;0.30;0.30;;;;;;;-0.62;100.00;101347.91;5064580;28;20120;-72
2024/01/20 05:47:22;;;;;;;2.45;2.35;;;;;;;-1.30;100.00;101231.38;5054087;28;20049;-72
2024/01/20 05:49:47;;;;;;;0.40;0.40;;;;;;;-0.61;100.00;101353.13;5058455;28;20794;-72
2024/01/20 05:52:13;;;;;;;0.30;0.30;;;;;;;-1.36;100.00;101231.00;5055198;28;20036;-73
2024/01/20 05:54:38;;;;;;;0.40;0.40;;;;;;;-0.72;100.00;101341.31;5072793;28;20621;-73
2024/01/20 05:57:04;;;;;;;0.40;0.40;;;;;;;-0.91;100.00;101314.44;5052131;28;20380;-73
2024/01/20 05:59:30;;;;;;;0.30;0.30;;;;;;;-1.24;100.00;101261.78;5060209;28;20024;-73
2024/01/20 06:01:55;;;;;;;0.50;0.50;;;;;;;-0.59;100.00;101336.06;5046343;28;20504;-74
2024/01/20 06:04:21;;;;;;;0.40;0.40;;;;;;;-0.61;100.00;101350.53;5047967;28;20378;-73
2024/01/20 06:06:47;;;;;;;0.50;0.50;;;;;;;-1.39;100.00;101253.09;5045114;28;20493;-73
2024/01/20 06:09:13;;;;;;;0.40;0.40;;;;;;;-0.70;100.00;101371.53;5049360;28;20037;-73
2024/01/20 06:11:40;;;;;;;0.40;0.40;;;;;;;-0.56;100.00;101371.44;5051968;28;20033;-73
2024/01/20 06:14:05;;;;;;;0.35;0.35;;;;;;;-0.48;100.00;101377.97;5047914;28;20040;-73
2024/01/20 06:16:31;;;;;;;0.40;0.40;;;;;;;-0.38;100.00;101382.88;5049561;28;20033;-73
2024/01/20 06:18:57;;;;;;;0.40;0.40;;;;;;;-0.69;100.00;101375.88;5053883;28;20558;-73
2024/01/20 06:21:22;;;;;;;0.40;0.40;;;;;;;-0.66;100.00;101377.72;5057669;28;20052;-72
2024/01/20 06:23:51;;;;;;;0.40;0.40;;;;;;;-1.25;100.00;101297.72;5076651;28;20539;-72
2024/01/20 06:26:17;;;;;;;0.40;0.40;;;;;;;-0.84;100.00;101374.94;5072377;28;20458;-73
2024/01/20 06:28:43;;;;;;;0.30;0.30;;;;;;;-1.11;100.00;101322.63;5060967;28;20045;-72
2024/01/20 06:31:09;;;;;;;0.30;0.30;;;;;;;-1.22;100.00;101315.91;5055156;28;20044;-72
2024/01/20 06:33:34;;;;;;;0.30;0.30;;;;;;;-0.69;100.00;101427.41;5059606;28;20049;-73
2024/01/20 06:36:00;;;;;;;0.32;0.32;;;;;;;-0.57;100.00;101432.41;5055514;28;20393;-72
2024/01/20 06:38:28;;;;;;;2.15;2.05;;;;;;;-0.97;100.00;101414.50;5063049;28;20032;-73
2024/01/20 06:40:53;;;;;;;0.40;0.40;;;;;;;-0.75;100.00;101432.19;5054589;28;20049;-72
2024/01/20 06:43:19;;;;;;;0.30;0.30;;;;;;;-0.67;100.00;101446.44;5055053;28;20719;-73
2024/01/20 06:45:46;;;;;;;0.98;0.98;;;;;;;-1.26;100.00;101335.44;5059100;28;20051;-73
2024/01/20 06:48:11;;;;;;;2.20;2.13;;;;;;;-1.20;100.00;101340.94;5058288;28;20029;-72
2024/01/20 06:50:43;;;;;;;0.30;0.30;;;;;;;-0.94;100.00;101357.13;5057283;28;20090;-73
2024/01/20 06:53:10;;;;;;;0.30;0.30;;;;;;;-0.42;100.00;101481.47;5068508;28;20040;-73
2024/01/20 06:55:35;;;;;;;0.30;0.30;;;;;;;-0.56;100.00;101479.69;5055243;28;20041;-72
2024/01/20 06:58:01;;;;;;;0.32;0.32;;;;;;;-0.40;100.00;101481.53;5059825;28;20045;-72
2024/01/20 07:00:27;;;;;;;2.35;2.25;;;;;;;-0.85;100.00;101388.59;5053265;28;20048;-72
2024/01/20 07:02:52;;;;;;;0.40;0.40;;;;;;;-0.58;100.00;101474.47;5048854;28;20040;-72
2024/01/20 07:05:18;;;;;;;0.38;0.38;;;;;;;-0.37;100.00;101500.69;5051659;28;20052;-72
2024/01/20 07:07:43;;;;;;;0.73;0.73;;;;;;;-0.56;100.00;101469.38;5052684;28;20073;-73
2024/01/20 07:10:09;;;;;;;0.30;0.30;;;;;;;-0.69;100.00;101418.78;5053288;28;20068;-73
2024/01/20 07:12:35;;;;;;;0.40;0.40;;;;;;;-0.44;100.00;101477.91;5052939;28;20124;-74
2024/01/20 07:15:00;;;;;;;0.40;0.40;;;;;;;-0.22;100.00;101480.09;5051159;28;20502;-74
2024/01/20 07:17:26;;;;;;;1.17;1.13;;;;;;;-0.53;100.00;101451.56;5052036;28;20048;-73
2024/01/20 07:19:51;;;;;;;0.30;0.30;;;;;;;-0.52;100.00;101461.94;5063056;28;20045;-73
2024/01/20 07:22:17;;;;;;;0.30;0.30;;;;;;;-0.82;100.00;101417.16;5061138;28;20045;-74
2024/01/20 07:24:43;;;;;;;0.40;0.40;;;;;;;-0.67;100.00;101482.50;5058523;28;20043;-73
2024/01/20 07:27:09;;;;;;;1.95;1.85;;;;;;;-0.71;100.00;101490.84;5067616;28;20424;-73
2024/01/20 07:29:34;;;;;;;0.40;0.40;;;;;;;-0.95;100.00;101428.38;5058211;28;20051;-73
2024/01/20 07:32:00;;;;;;;0.30;0.30;;;;;;;-0.85;100.00;101427.25;5057471;28;20069;-73
2024/01/20 07:34:25;;;;;;;0.40;0.40;;;;;;;-0.98;100.00;101435.03;5056706;28;20572;-73
2024/01/20 07:36:50;;;;;;;0.30;0.30;;;;;;;-0.88;100.00;101427.06;5062222;28;20779;-72
2024/01/20 07:39:16;;;;;;;1.88;1.80;;;;;;;-0.41;100.00;101503.88;5052856;28;20126;-73
2024/01/20 07:41:42;;;;;;;0.52;0.52;;;;;;;-0.29;100.00;101521.78;5052063;28;20035;-72
2024/01/20 07:44:07;;;;;;;0.32;0.32;;;;;;;-0.94;100.00;101452.44;5056439;28;20049;-72
2024/01/20 07:46:33;;;;;;;0.30;0.30;;;;;;;-0.59;100.00;101549.13;5062276;28;20040;-73
2024/01/20 07:48:58;;;;;;;0.40;0.40;;;;;;;-1.65;100.00;101431.59;5053101;28;20053;-74
2024/01/20 07:51:24;;;;;;;0.40;0.40;;;;;;;-0.74;100.00;101542.19;5058578;28;20044;-72
2024/01/20 07:53:49;;;;;;;0.50;0.50;;;;;;;-1.12;100.00;101460.78;5057088;28;20037;-73
2024/01/20 07:56:16;;;;;;;0.30;0.30;;;;;;;-0.55;100.00;101548.53;5059873;28;20137;-73
2024/01/20 07:58:42;;;;;;;0.30;0.30;;;;;;;-0.36;100.00;101545.41;5052468;28;20052;-72
2024/01/20 08:01:07;;;;;;;0.47;0.47;;;;;;;-0.60;100.00;101532.75;5056376;28;20082;-72
2024/01/20 08:03:33;;;;;;;1.20;1.20;;;;;;;-1.07;100.00;101479.13;5052335;28;20124;-74
2024/01/20 08:06:00;;;;;;;0.30;0.30;;;;;;;-0.61;100.00;101549.00;5049065;28;20925;-73
2024/01/20 08:08:26;;;;;;;0.40;0.40;;;;;;;-1.76;100.00;101428.28;5058805;28;20037;-73
2024/01/20 08:10:51;;;;;;;0.38;0.38;;;;;;;-0.74;100.00;101569.66;5052197;28;20079;-73
2024/01/20 08:13:17;;;;;;;0.40;0.40;;;;;;;-1.02;100.00;101570.44;5049103;28;20040;-73
2024/01/20 08:15:42;;;;;;;0.40;0.40;;;;;;;-1.43;100.00;101436.44;5058882;28;20477;-73
2024/01/20 08:18:08;;;;;;;0.32;0.32;;;;;;;-0.84;100.00;101545.00;5058619;28;20424;-74
2024/01/20 08:20:33;;;;;;;0.30;0.30;;;;;;;-0.96;100.00;101480.69;5062671;28;20086;-74
2024/01/20 08:22:59;;;;;;;7.97;7.43;;;;;;;-0.12;100.00;101584.72;5062682;28;20053;-74
2024/01/20 08:25:24;;;;;;;0.93;0.93;;;;;;;-0.24;100.00;101564.22;5058555;28;20037;-74
2024/01/20 08:27:50;;;;;;;0.30;0.30;;;;;;;-0.74;100.00;101569.66;5058812;28;20057;-73
2024/01/20 08:30:15;;;;;;;0.43;0.43;;;;;;;-0.23;100.00;101596.97;5052848;28;20028;-73
2024/01/20 08:32:42;;;;;;;1.63;1.58;;;;;;;-1.47;100.00;101506.53;5058673;28;20249;-73
2024/01/20 08:35:08;;;;;;;3.28;3.17;;;;;;;-0.87;100.00;101494.16;5055141;28;20539;-72
2024/01/20 08:37:34;;;;;;;0.30;0.30;;;;;;;-0.25;100.00;101603.69;5053791;28;20426;-74
2024/01/20 08:40:00;;;;;;;0.50;0.50;;;;;;;-0.35;100.00;101586.78;5060673;28;20041;-73
2024/01/20 08:42:25;;;;;;;0.55;0.55;;;;;;;-0.37;100.00;101572.00;5054162;28;20476;-72
2024/01/20 08:44:51;;;;;;;0.80;0.80;;;;;;;0.13;100.00;101610.34;5074336;28;20051;-73
2024/01/20 08:47:16;;;;;;;0.40;0.40;;;;;;;-0.40;100.00;101482.44;5055216;28;20052;-73
2024/01/20 08:49:42;;;;;;;13.90;11.10;;;;;;;0.10;100.00;101594.69;5075408;28;20170;-74
2024/01/20 08:52:08;;;;;;;0.40;0.40;;;;;;;0.08;100.00;101573.06;5051569;28;20056;-73
2024/01/20 08:54:33;;;;;;;0.30;0.30;;;;;;;0.15;100.00;101595.84;5057370;28;20045;-73
2024/01/20 08:56:59;;;;;;;0.30;0.30;;;;;;;0.31;100.00;101590.81;5055454;28;20045;-74
2024/01/20 08:59:24;;;;;;;0.50;0.50;;;;;;;0.22;100.00;101613.50;5061030;28;20031;-73
2024/01/20 09:01:50;;;;;;;0.30;0.30;;;;;;;0.50;100.00;101584.19;5062180;28;20032;-73
2024/01/20 09:04:16;;;;;;;0.32;0.32;;;;;;;0.48;100.00;101601.28;5073078;28;20365;-73
2024/01/20 09:06:43;;;;;;;3.42;3.22;;;;;;;0.81;100.00;101608.41;5058923;28;20037;-72
2024/01/20 09:09:08;;;;;;;0.40;0.40;;;;;;;0.19;100.00;101492.00;5059714;28;20400;-73
2024/01/20 09:11:34;;;;;;;0.40;0.40;;;;;;;0.96;100.00;101611.03;5063850;28;20094;-72
2024/01/20 09:13:59;;;;;;;1.77;1.67;;;;;;;0.97;100.00;101579.19;5057475;28;20074;-73
2024/01/20 09:16:25;;;;;;;0.32;0.32;;;;;;;0.46;100.00;101523.72;5057288;28;20041;-73
2024/01/20 09:18:50;;;;;;;0.38;0.38;;;;;;;0.76;100.00;101596.03;5055439;28;20049;-73
2024/01/20 09:21:16;;;;;;;0.35;0.35;;;;;;;0.58;100.00;101545.06;5060210;28;20082;-74
2024/01/20 09:23:41;;;;;;;0.30;0.30;;;;;;;0.73;100.00;101576.09;5063390;28;20036;-73
2024/01/20 09:26:07;;;;;;;0.30;0.30;;;;;;;1.00;100.00;101607.78;5069940;28;20048;-72
2024/01/20 09:28:32;;;;;;;0.52;0.52;;;;;;;0.81;100.00;101573.94;5055872;28;20048;-74
2024/01/20 09:30:58;;;;;;;0.60;0.60;;;;;;;0.66;100.00;101579.13;5051573;28;20041;-72
2024/01/20 09:33:25;;;;;;;0.30;0.30;;;;;;;0.29;100.00;101463.34;5056470;28;20139;-73
2024/01/20 09:35:50;;;;;;;0.57;0.57;;;;;;;1.01;100.00;101577.69;5050947;28;20446;-74
2024/01/20 09:38:16;;;;;;;0.55;0.55;;;;;;;0.70;100.00;101516.47;5067429;28;20037;-73
2024/01/20 09:40:41;;;;;;;0.40;0.40;;;;;;;1.23;100.00;101590.13;5057145;28;20049;-74
2024/01/20 09:43:07;;;;;;;3.22;2.92;;;;;;;0.49;100.00;101518.75;5053999;28;20136;-72
2024/01/20 09:45:38;;;;;;;0.30;0.30;;;;;;;1.35;100.00;101614.09;5054973;28;20045;-75
2024/01/20 09:48:06;;;;;;;0.38;0.38;;;;;;;0.84;100.00;101535.38;5055417;28;20043;-73
2024/01/20 09:50:31;;;;;;;0.40;0.40;;;;;;;1.22;100.00;101609.94;5057644;28;20139;-73
2024/01/20 09:53:11;;;;;;;1.05;1.05;;;;;;;1.47;100.00;101611.31;5059895;28;20063;-74
2024/01/20 09:55:36;;;;;;;0.40;0.40;;;;;;;1.60;100.00;101607.72;5051949;28;20056;-73
2024/01/20 09:58:04;;;;;;;0.20;0.20;;;;;;;0.71;100.00;101507.06;5058247;28;20106;-73
2024/01/20 10:00:30;;;;;;;1.40;0.50;;;;;;;1.54;100.00;101621.19;5055080;28;20037;-73
2024/01/20 10:02:56;;;;;;;0.32;0.32;;;;;;;0.80;100.00;101508.47;5057299;28;20492;-73
2024/01/20 10:05:24;;;;;;;7.63;2.80;;;;;;;1.48;100.00;101619.16;5074303;28;20047;-73
2024/01/20 10:07:49;;;;;;;0.30;0.30;;;;;;;1.41;100.00;101627.38;5067218;28;20699;-72
2024/01/20 10:10:21;;;;;;;0.60;0.60;;;;;;;0.51;100.00;101622.97;5054645;28;20048;-72
2024/01/20 10:12:57;;;;;;;0.30;0.30;;;;;;;1.25;100.00;101637.66;5054228;28;20492;-73
2024/01/20 10:15:28;;;;;;;0.40;0.40;;;;;;;1.44;100.00;101632.72;5056690;28;20098;-73
2024/01/20 10:17:57;;;;;;;0.32;0.32;;;;;;;1.36;100.00;101599.47;5046329;28;20109;-72
2024/01/20 10:20:25;;;;;;;2.25;2.15;;;;;;;1.29;100.00;101616.34;5061011;28;20044;-72
2024/01/20 10:22:51;;;;;;;0.50;0.50;;;;;;;0.60;100.00;101527.09;5051784;28;20049;-73
2024/01/20 10:25:21;;;;;;;0.40;0.40;;;;;;;0.74;100.00;101626.94;5056186;28;20053;-73
2024/01/20 10:27:47;;;;;;;0.90;0.88;;;;;;;1.12;100.00;101627.41;5054863;28;20044;-73
2024/01/20 10:30:18;;;;;;;7.10;6.80;;;;;;;1.01;100.00;101632.84;5048404;28;20037;-73
2024/01/20 10:32:47;;;;;;;0.32;0.32;;;;;;;1.29;100.00;101616.34;5053280;28;20028;-71
2024/01/20 10:35:13;;;;;;;0.30;0.30;;;;;;;1.26;100.00;101642.91;5055816;28;20055;-73
2024/01/20 10:37:40;;;;;;;0.70;0.70;;;;;;;0.86;100.00;101629.34;5050393;28;20048;-72
2024/01/20 10:40:10;;;;;;;0.30;0.30;;;;;;;0.68;100.00;101532.69;5052598;28;20453;-72
2024/01/20 10:42:51;;;;;;;0.35;0.35;;;;;;;1.52;100.00;101629.66;5049653;28;20043;-72
2024/01/20 10:45:18;;;;;;;2.40;2.30;;;;;;;1.55;100.00;101632.44;5053323;28;20051;-72
2024/01/20 10:47:59;;;;;;;0.52;0.52;;;;;;;1.71;100.00;101627.31;5050820;28;20025;-73
2024/01/20 10:50:27;;;;;;;1.33;1.23;;;;;;;0.84;100.00;101522.44;5049537;28;20404;-73
2024/01/20 10:52:52;;;;;;;1.05;0.50;;;;;;;1.18;100.00;101548.50;5056791;28;20048;-74
2024/01/20 10:55:19;;;;;;;3.97;3.78;;;;;;;1.29;100.00;101541.38;5045405;28;20127;-73
2024/01/20 10:57:49;;;;;;;0.60;0.60;;;;;;;1.63;100.00;101628.56;5043683;28;20041;-72
2024/01/20 11:00:16;;;;;;;2.55;1.77;;;;;;;1.36;100.00;101626.22;5058544;28;20111;-73
2024/01/20 11:02:42;;;;;;;0.50;0.50;;;;;;;1.47;100.00;101635.50;5055447;28;20463;-72
2024/01/20 11:05:35;;;;;;;0.47;0.47;;;;;;;1.79;100.00;101640.66;5056861;28;20052;-72
2024/01/20 11:08:05;;;;;;;0.40;0.40;;;;;;;1.70;100.00;101633.28;5055032;28;20080;-74
2024/01/20 11:10:41;;;;;;;0.30;0.30;;;;;;;1.15;100.00;101543.19;5054584;28;20036;-72
2024/01/20 11:13:09;;;;;;;2.72;2.50;;;;;;;1.05;100.00;101544.38;5056454;28;20458;-74
2024/01/20 11:15:36;;;;;;;0.50;0.50;;;;;;;1.77;100.00;101647.47;5059901;28;20337;-72